Time;durP1;ratioP1;P1;durP2;ratioP2;P2;SDS_P1;SDS_P2;PMS_P1;PMS_P2;Temp;Humidity;BMP_temperature;BMP_pressure;BME280_temperature;BME280_humidity;BME280_pressure;Samples;Min_cycle;Max_cycle;Signal;HPM_P1;HPM_P2
2023/08/16 00:00:33;;;;;;;6.60;5.50;;;27.60;60.00;;;;;;221755;1271;22543;-50
2023/08/16 00:05:56;;;;;;;6.10;5.50;;;27.60;60.00;;;;;;221750;1264;22541;-50
2023/08/16 00:10:59;;;;;;;6.20;5.70;;;27.60;60.00;;;;;;221881;1270;24212;-51
2023/08/16 00:16:02;;;;;;;8.10;5.50;;;27.60;60.00;;;;;;221917;1267;22525;-49
2023/08/16 00:21:05;;;;;;;8.10;5.60;;;27.50;60.00;;;;;;221584;1271;22611;-47
2023/08/16 00:26:08;;;;;;;6.00;5.50;;;27.50;60.00;;;;;;221969;1271;22535;-50
2023/08/16 00:31:11;;;;;;;6.70;5.90;;;27.50;60.00;;;;;;222016;1268;22569;-49
2023/08/16 00:36:14;;;;;;;6.70;6.10;;;27.50;60.10;;;;;;221852;1267;25465;-49
2023/08/16 00:41:19;;;;;;;6.50;5.90;;;27.50;60.00;;;;;;221954;1271;23919;-52
2023/08/16 00:46:22;;;;;;;5.80;5.40;;;27.50;59.90;;;;;;221939;1269;24279;-49
2023/08/16 00:51:25;;;;;;;6.10;5.60;;;27.50;59.90;;;;;;221927;1255;25331;-49
2023/08/16 00:56:28;;;;;;;6.50;5.80;;;27.50;59.90;;;;;;221936;1271;24251;-47
2023/08/16 01:01:31;;;;;;;6.40;5.90;;;27.50;59.90;;;;;;221953;1271;22604;-51
2023/08/16 01:06:34;;;;;;;8.50;6.30;;;27.50;59.80;;;;;;221825;1264;22508;-52
2023/08/16 01:12:12;;;;;;;6.20;5.70;;;27.50;59.80;;;;;;221833;1271;22537;-52
2023/08/16 01:17:15;;;;;;;6.40;5.90;;;27.40;59.70;;;;;;222052;1271;23942;-51
2023/08/16 01:22:55;;;;;;;6.10;5.70;;;27.40;59.70;;;;;;222010;1269;22536;-49
2023/08/16 01:28:00;;;;;;;6.40;5.90;;;27.40;60.00;;;;;;221931;1271;22661;-48
2023/08/16 01:33:09;;;;;;;6.90;6.10;;;27.40;59.70;;;;;;222160;1269;22527;-49
2023/08/16 01:38:13;;;;;;;7.20;6.60;;;27.40;60.00;;;;;;222080;1253;22536;-52
2023/08/16 01:43:17;;;;;;;6.80;6.20;;;27.40;59.90;;;;;;222046;1271;22555;-53
2023/08/16 01:48:23;;;;;;;6.40;5.80;;;27.40;59.50;;;;;;222031;1271;22652;-49
2023/08/16 01:53:25;;;;;;;6.40;6.00;;;27.40;59.40;;;;;;221916;1269;22612;-48
2023/08/16 01:58:28;;;;;;;6.90;6.40;;;27.30;59.40;;;;;;222075;1264;22538;-49
2023/08/16 02:03:32;;;;;;;5.90;5.50;;;27.40;59.50;;;;;;222110;1271;23057;-51
2023/08/16 02:08:35;;;;;;;9.20;5.60;;;27.30;59.30;;;;;;221830;1270;22537;-51
2023/08/16 02:13:38;;;;;;;6.70;6.20;;;27.30;59.40;;;;;;221770;1271;23923;-51
2023/08/16 02:18:41;;;;;;;6.60;6.10;;;27.30;59.30;;;;;;221922;1267;22712;-52
2023/08/16 02:23:44;;;;;;;6.90;6.40;;;27.30;59.30;;;;;;221859;1271;23929;-51
2023/08/16 02:28:48;;;;;;;7.00;6.50;;;27.30;59.40;;;;;;221899;1269;22522;-50
2023/08/16 02:33:51;;;;;;;6.90;6.00;;;27.30;59.50;;;;;;222044;1268;22531;-49
2023/08/16 02:38:53;;;;;;;7.00;6.40;;;27.20;59.40;;;;;;222000;1269;25428;-48
2023/08/16 02:43:56;;;;;;;6.20;5.80;;;27.20;59.30;;;;;;222004;1270;22595;-53
2023/08/16 02:48:59;;;;;;;6.60;6.10;;;27.20;59.40;;;;;;221788;1269;22622;-50
2023/08/16 02:54:06;;;;;;;7.00;6.40;;;27.20;59.30;;;;;;221892;1267;22641;-51
2023/08/16 02:59:13;;;;;;;8.60;6.00;;;27.20;59.30;;;;;;221954;1267;22616;-51
2023/08/16 03:04:15;;;;;;;7.00;6.40;;;27.10;59.30;;;;;;221974;1266;22522;-49
2023/08/16 03:09:18;;;;;;;6.20;5.70;;;27.20;59.30;;;;;;221937;1271;22607;-51
2023/08/16 03:14:21;;;;;;;7.50;6.90;;;27.10;59.30;;;;;;222108;1270;22528;-49
2023/08/16 03:19:26;;;;;;;7.40;6.70;;;27.10;59.30;;;;;;222023;1271;22728;-49
2023/08/16 03:24:29;;;;;;;6.70;6.30;;;27.10;59.50;;;;;;221880;1270;244799;-48
2023/08/16 03:29:32;;;;;;;6.70;6.20;;;27.10;59.50;;;;;;221726;1269;23061;-49
2023/08/16 03:34:36;;;;;;;7.10;6.60;;;27.10;59.50;;;;;;221828;1271;25274;-50
2023/08/16 03:39:38;;;;;;;6.40;6.00;;;27.10;59.60;;;;;;222040;1264;25231;-51
2023/08/16 03:44:41;;;;;;;7.80;7.20;;;27.10;59.50;;;;;;221918;1271;22520;-53
2023/08/16 03:49:45;;;;;;;6.60;6.10;;;27.10;59.50;;;;;;221818;1271;22825;-48
2023/08/16 03:54:48;;;;;;;6.70;6.00;;;27.00;59.40;;;;;;221734;1255;23064;-50
2023/08/16 03:59:54;;;;;;;7.40;6.80;;;27.00;59.80;;;;;;221721;1271;22649;-48
2023/08/16 04:05:08;;;;;;;7.40;6.80;;;27.10;59.40;;;;;;221886;1268;23904;-52
2023/08/16 04:10:11;;;;;;;6.80;6.30;;;27.00;59.30;;;;;;221917;1267;23142;-47
2023/08/16 04:15:14;;;;;;;6.80;6.10;;;27.00;59.20;;;;;;221972;1268;22555;-52
2023/08/16 04:20:17;;;;;;;7.10;6.50;;;27.00;59.20;;;;;;221773;1264;22521;-47
2023/08/16 04:25:20;;;;;;;7.50;6.90;;;27.00;59.20;;;;;;222048;1271;22615;-50
2023/08/16 04:30:23;;;;;;;7.30;6.10;;;27.00;59.30;;;;;;221449;1271;22653;-49
2023/08/16 04:35:26;;;;;;;7.80;6.70;;;27.00;59.40;;;;;;222079;1270;22598;-51
2023/08/16 04:40:29;;;;;;;6.60;6.00;;;27.00;59.50;;;;;;221963;1267;23897;-48
2023/08/16 04:45:32;;;;;;;6.40;5.90;;;27.00;59.50;;;;;;221882;1271;24117;-50
2023/08/16 04:50:35;;;;;;;6.60;6.10;;;27.00;59.50;;;;;;221664;1264;22528;-51
2023/08/16 04:55:38;;;;;;;6.80;6.20;;;26.90;59.60;;;;;;221697;1270;24256;-52
2023/08/16 05:00:41;;;;;;;7.00;6.50;;;27.00;59.70;;;;;;222249;1257;22524;-53
2023/08/16 05:05:44;;;;;;;7.00;6.40;;;27.00;59.70;;;;;;222118;1270;22517;-51
2023/08/16 05:10:47;;;;;;;7.30;6.50;;;27.00;59.70;;;;;;221905;1255;24272;-49
2023/08/16 05:15:50;;;;;;;6.90;6.40;;;27.00;59.80;;;;;;222134;1268;22580;-52
2023/08/16 05:20:57;;;;;;;6.50;6.00;;;27.00;59.90;;;;;;221878;1271;24370;-50
2023/08/16 05:25:59;;;;;;;7.20;6.50;;;27.00;60.00;;;;;;222042;1271;25283;-49
2023/08/16 05:31:09;;;;;;;7.00;6.40;;;27.10;60.20;;;;;;221939;1270;22650;-51
2023/08/16 05:36:12;;;;;;;7.40;6.40;;;27.00;60.00;;;;;;221900;1250;24199;-51
2023/08/16 05:41:15;;;;;;;6.40;5.90;;;27.10;60.20;;;;;;221770;1263;24233;-49
2023/08/16 05:46:18;;;;;;;6.50;6.10;;;27.10;60.30;;;;;;222248;1269;25336;-51
2023/08/16 05:51:21;;;;;;;6.00;5.60;;;27.10;60.30;;;;;;222080;1268;24344;-49
2023/08/16 05:56:24;;;;;;;6.90;6.20;;;27.10;60.40;;;;;;221771;1270;22838;-47
2023/08/16 06:01:27;;;;;;;7.60;7.00;;;27.20;60.50;;;;;;221937;1255;24206;-50
2023/08/16 06:06:30;;;;;;;6.90;6.30;;;27.20;60.50;;;;;;221863;1264;22539;-48
2023/08/16 06:11:34;;;;;;;6.90;6.30;;;27.20;60.30;;;;;;222014;1270;22526;-49
2023/08/16 06:16:36;;;;;;;6.80;6.10;;;27.20;60.60;;;;;;221979;1256;24149;-53
2023/08/16 06:21:40;;;;;;;7.90;6.90;;;27.20;60.60;;;;;;221867;1265;22594;-50
2023/08/16 06:26:43;;;;;;;7.00;6.40;;;27.20;60.80;;;;;;222038;1267;22528;-49
2023/08/16 06:31:48;;;;;;;6.60;6.10;;;27.20;60.90;;;;;;221867;1267;22534;-49
2023/08/16 06:36:51;;;;;;;7.40;6.80;;;27.30;61.40;;;;;;221947;1268;24072;-52
2023/08/16 06:41:54;;;;;;;7.00;6.50;;;27.30;60.60;;;;;;221789;1270;25349;-47
2023/08/16 06:46:57;;;;;;;6.70;6.20;;;27.30;60.70;;;;;;221900;1264;25354;-52
2023/08/16 06:52:00;;;;;;;7.20;6.60;;;27.30;60.90;;;;;;221986;1255;22513;-52
2023/08/16 06:57:03;;;;;;;7.70;7.10;;;27.30;60.90;;;;;;222004;1271;22520;-49
2023/08/16 07:02:07;;;;;;;7.10;6.30;;;27.40;60.90;;;;;;221783;1259;22535;-47
2023/08/16 07:07:10;;;;;;;7.30;6.80;;;27.40;60.70;;;;;;222030;1268;22521;-48
2023/08/16 07:12:13;;;;;;;7.80;7.00;;;27.40;60.80;;;;;;221905;1255;22532;-47
2023/08/16 07:17:16;;;;;;;7.20;6.70;;;27.50;61.20;;;;;;221986;1271;25236;-47
2023/08/16 07:22:20;;;;;;;7.00;6.50;;;27.50;61.00;;;;;;222190;1268;22533;-51
2023/08/16 07:27:24;;;;;;;7.00;6.50;;;27.50;60.90;;;;;;221995;1264;23894;-49
2023/08/16 07:32:27;;;;;;;7.70;7.10;;;27.60;61.00;;;;;;221982;1266;22539;-53
2023/08/16 07:37:33;;;;;;;7.30;6.70;;;27.60;61.30;;;;;;221653;1264;22533;-48
2023/08/16 07:42:37;;;;;;;8.00;7.40;;;27.60;61.10;;;;;;222106;1255;24182;-49
2023/08/16 07:47:39;;;;;;;7.10;6.60;;;27.60;61.20;;;;;;222111;1271;25580;-46
2023/08/16 07:52:43;;;;;;;7.90;7.30;;;27.60;61.30;;;;;;221861;1266;23887;-51
2023/08/16 07:57:46;;;;;;;7.00;6.60;;;27.60;61.40;;;;;;222073;1267;22555;-51
2023/08/16 08:02:49;;;;;;;8.50;7.60;;;27.70;61.50;;;;;;221893;1262;22529;-50
2023/08/16 08:08:04;;;;;;;8.00;7.40;;;27.70;61.50;;;;;;221889;1260;24232;-48
2023/08/16 08:13:08;;;;;;;7.40;6.90;;;27.70;61.60;;;;;;222039;1264;24189;-50
2023/08/16 08:18:11;;;;;;;7.50;6.80;;;27.70;61.60;;;;;;221595;1264;22518;-48
2023/08/16 08:23:15;;;;;;;8.00;7.30;;;27.80;61.60;;;;;;222005;1271;23922;-51
2023/08/16 08:28:18;;;;;;;7.50;6.90;;;27.80;61.50;;;;;;221714;1265;22546;-51
2023/08/16 08:33:21;;;;;;;7.90;7.40;;;27.90;61.50;;;;;;222024;1270;22652;-48
2023/08/16 08:38:25;;;;;;;8.30;7.60;;;27.90;61.30;;;;;;222252;1260;22521;-50
2023/08/16 08:43:33;;;;;;;8.40;7.70;;;27.90;61.30;;;;;;221852;1267;23890;-50
2023/08/16 08:48:48;;;;;;;7.00;6.40;;;27.90;61.30;;;;;;221900;1267;22518;-54
2023/08/16 08:53:51;;;;;;;7.50;6.90;;;28.00;61.40;;;;;;221915;1267;22524;-53
2023/08/16 08:58:56;;;;;;;7.10;6.70;;;28.00;61.20;;;;;;221850;1259;22527;-49
2023/08/16 09:04:15;;;;;;;7.50;6.90;;;28.00;61.00;;;;;;222033;1271;22518;-50
2023/08/16 09:09:22;;;;;;;7.90;7.30;;;28.10;61.00;;;;;;222202;1263;22526;-49
2023/08/16 09:14:25;;;;;;;8.30;7.50;;;28.10;61.30;;;;;;222089;1255;22517;-51
2023/08/16 09:19:28;;;;;;;7.20;6.60;;;28.10;61.30;;;;;;222105;1266;22546;-49
2023/08/16 09:24:31;;;;;;;7.80;7.10;;;28.30;61.00;;;;;;222024;1270;22540;-50
2023/08/16 09:29:38;;;;;;;7.50;6.90;;;28.30;61.10;;;;;;221889;1266;22554;-50
2023/08/16 09:34:41;;;;;;;7.90;7.10;;;28.30;61.20;;;;;;222038;1265;22642;-49
2023/08/16 09:39:59;;;;;;;8.20;7.70;;;28.40;60.80;;;;;;221866;1267;25279;-49
2023/08/16 09:45:03;;;;;;;7.60;7.10;;;28.40;60.20;;;;;;221953;1255;23422;-49
2023/08/16 09:50:07;;;;;;;7.80;7.30;;;28.40;61.20;;;;;;222119;1264;24270;-49
2023/08/16 09:55:10;;;;;;;7.80;7.20;;;28.40;60.80;;;;;;222159;1255;22543;-51
2023/08/16 10:00:16;;;;;;;8.50;7.80;;;28.50;61.30;;;;;;221903;1256;22777;-52
2023/08/16 10:05:20;;;;;;;7.60;7.10;;;28.50;61.00;;;;;;222093;1265;22551;-48
2023/08/16 10:10:26;;;;;;;8.20;7.60;;;28.50;60.40;;;;;;221928;1265;25273;-51
2023/08/16 10:15:33;;;;;;;7.90;7.40;;;28.60;61.10;;;;;;222032;1269;22537;-48
2023/08/16 10:20:37;;;;;;;7.90;7.20;;;28.60;61.10;;;;;;222088;1271;23470;-49
2023/08/16 10:25:47;;;;;;;14.30;7.70;;;28.60;61.00;;;;;;222309;1256;25336;-47
2023/08/16 10:30:56;;;;;;;8.80;8.00;;;28.70;61.10;;;;;;221890;1269;25465;-50
2023/08/16 10:36:02;;;;;;;8.40;7.80;;;28.70;61.00;;;;;;222105;1264;24242;-51
2023/08/16 10:41:13;;;;;;;9.00;8.30;;;28.80;61.00;;;;;;222196;1271;24303;-51
2023/08/16 10:46:33;;;;;;;8.70;8.00;;;28.80;61.00;;;;;;221834;1268;24385;-50
2023/08/16 10:51:48;;;;;;;8.10;7.50;;;28.90;60.80;;;;;;222050;1270;22521;-48
2023/08/16 10:56:50;;;;;;;7.90;7.40;;;28.90;60.80;;;;;;221998;1255;23555;-48
2023/08/16 11:01:53;;;;;;;8.30;7.70;;;28.90;60.70;;;;;;222136;1255;22533;-52
2023/08/16 11:06:56;;;;;;;8.20;7.60;;;29.00;61.00;;;;;;222114;1255;22527;-48
2023/08/16 11:12:08;;;;;;;8.10;7.50;;;29.00;60.50;;;;;;222020;1270;22578;-48
2023/08/16 11:17:18;;;;;;;7.90;7.20;;;29.10;60.50;;;;;;221926;1266;25500;-49
2023/08/16 11:22:22;;;;;;;8.20;7.50;;;29.00;60.50;;;;;;221823;1270;22655;-50
2023/08/16 11:27:26;;;;;;;7.70;7.30;;;29.10;60.30;;;;;;221931;1266;22539;-49
2023/08/16 11:32:38;;;;;;;8.00;7.30;;;29.10;60.50;;;;;;221877;1265;25337;-48
2023/08/16 11:37:41;;;;;;;7.00;6.50;;;29.20;60.30;;;;;;222004;1270;22521;-49
2023/08/16 11:42:44;;;;;;;7.20;6.80;;;29.30;60.60;;;;;;221591;1271;22868;-49
2023/08/16 11:47:52;;;;;;;7.80;7.30;;;29.30;60.00;;;;;;221870;1256;24377;-50
2023/08/16 11:52:59;;;;;;;7.50;6.90;;;29.20;59.90;;;;;;221962;1264;22657;-51
2023/08/16 11:58:10;;;;;;;7.00;6.40;;;29.40;59.80;;;;;;222132;1263;22517;-52
2023/08/16 12:03:13;;;;;;;7.70;7.10;;;29.40;59.60;;;;;;221913;1269;23935;-52
2023/08/16 12:08:22;;;;;;;7.00;6.60;;;29.40;59.80;;;;;;221648;1257;22526;-48
2023/08/16 12:13:25;;;;;;;6.80;6.30;;;29.30;60.10;;;;;;221567;1260;22537;-49
2023/08/16 12:18:28;;;;;;;7.30;6.80;;;29.40;59.80;;;;;;221783;1268;22601;-52
2023/08/16 12:23:31;;;;;;;7.60;7.20;;;29.40;60.00;;;;;;221868;1268;24377;-50
2023/08/16 12:28:35;;;;;;;7.00;6.50;;;29.40;59.70;;;;;;221868;1270;22579;-51
2023/08/16 12:33:37;;;;;;;7.00;6.50;;;29.40;59.60;;;;;;221983;1264;25506;-51
2023/08/16 12:38:40;;;;;;;6.50;6.00;;;29.50;59.50;;;;;;221969;1264;22601;-50
2023/08/16 12:43:43;;;;;;;7.50;6.90;;;29.50;59.60;;;;;;221691;1266;22524;-51
2023/08/16 12:48:47;;;;;;;7.50;7.00;;;29.50;60.00;;;;;;221992;1271;22683;-46
2023/08/16 12:53:51;;;;;;;7.10;6.70;;;29.50;59.40;;;;;;222057;1265;22595;-50
2023/08/16 12:58:54;;;;;;;7.10;6.70;;;29.50;59.40;;;;;;221847;1270;22680;-50
2023/08/16 13:03:59;;;;;;;7.20;6.60;;;29.50;59.70;;;;;;221843;1268;22548;-48
2023/08/16 13:09:06;;;;;;;6.90;6.30;;;29.50;59.40;;;;;;221895;1265;22518;-47
2023/08/16 13:14:10;;;;;;;6.80;6.30;;;29.60;59.40;;;;;;221989;1263;22529;-51
2023/08/16 13:19:14;;;;;;;6.80;6.30;;;29.60;59.50;;;;;;221925;1257;22581;-46
2023/08/16 13:24:19;;;;;;;6.60;6.20;;;29.60;59.80;;;;;;221836;1270;22584;-51
2023/08/16 13:29:25;;;;;;;7.20;6.70;;;29.60;59.80;;;;;;221979;1266;24300;-49
2023/08/16 13:34:31;;;;;;;6.90;6.50;;;29.60;59.40;;;;;;222116;1271;25522;-51
2023/08/16 13:39:39;;;;;;;7.90;7.20;;;29.60;59.50;;;;;;221862;1263;22580;-50
2023/08/16 13:44:45;;;;;;;6.70;6.30;;;29.70;59.70;;;;;;221795;1270;22520;-49
2023/08/16 13:49:50;;;;;;;7.20;6.70;;;29.70;59.30;;;;;;221965;1253;22565;-51
2023/08/16 13:54:53;;;;;;;7.30;6.80;;;29.70;59.40;;;;;;221904;1265;23605;-49
2023/08/16 13:59:57;;;;;;;7.50;7.10;;;29.60;59.40;;;;;;221703;1264;22795;-50
2023/08/16 14:04:59;;;;;;;7.40;6.90;;;29.70;59.30;;;;;;221966;1267;24195;-50
2023/08/16 14:10:03;;;;;;;7.80;6.80;;;29.60;59.60;;;;;;221866;1267;24180;-56
2023/08/16 14:15:07;;;;;;;10.20;7.20;;;29.70;60.10;;;;;;221788;1264;24266;-54
2023/08/16 14:20:10;;;;;;;8.50;7.70;;;29.60;60.00;;;;;;221931;1267;22520;-54
2023/08/16 14:25:13;;;;;;;8.60;8.00;;;29.80;60.10;;;;;;221852;1271;26688;-55
2023/08/16 14:30:16;;;;;;;9.60;8.60;;;29.70;60.40;;;;;;222043;1265;22824;-55
2023/08/16 14:35:19;;;;;;;10.10;9.00;;;29.90;60.60;;;;;;221635;1266;22636;-56
2023/08/16 14:40:21;;;;;;;10.00;9.10;;;29.60;61.70;;;;;;222050;1264;22511;-56
2023/08/16 14:45:34;;;;;;;11.30;9.10;;;29.40;61.90;;;;;;221823;1267;25041;-56
2023/08/16 14:50:37;;;;;;;12.00;10.10;;;29.50;63.10;;;;;;221780;1267;24253;-54
2023/08/16 14:55:39;;;;;;;11.20;9.70;;;29.50;63.10;;;;;;222011;1263;24221;-54
2023/08/16 15:00:42;;;;;;;11.00;9.80;;;29.50;63.30;;;;;;221913;1263;23356;-55
2023/08/16 15:05:45;;;;;;;11.50;10.30;;;29.50;63.00;;;;;;221857;1268;22676;-56
2023/08/16 15:10:49;;;;;;;9.30;8.60;;;29.50;63.60;;;;;;221756;1264;22510;-55
2023/08/16 15:15:52;;;;;;;10.80;9.70;;;29.50;64.10;;;;;;221638;1271;22644;-55
2023/08/16 15:20:54;;;;;;;10.30;9.20;;;29.50;64.30;;;;;;221661;1265;22524;-51
2023/08/16 15:25:57;;;;;;;10.60;9.20;;;29.60;64.20;;;;;;221789;1265;200670;-47
2023/08/16 15:31:02;;;;;;;13.40;10.80;;;29.80;64.00;;;;;;221777;1265;22524;-47
2023/08/16 15:36:05;;;;;;;15.30;10.60;;;29.80;63.80;;;;;;222013;1270;22537;-48
2023/08/16 15:41:09;;;;;;;11.20;10.10;;;29.50;60.30;;;;;;221720;1268;24270;-47
2023/08/16 15:46:15;;;;;;;11.50;9.60;;;28.60;58.20;;;;;;222062;1257;24138;-54
2023/08/16 15:51:17;;;;;;;13.00;9.30;;;28.20;57.80;;;;;;221975;1265;24476;-55
2023/08/16 15:56:20;;;;;;;11.00;9.00;;;28.10;57.00;;;;;;221523;1271;24210;-51
2023/08/16 16:01:23;;;;;;;8.70;7.90;;;28.00;55.10;;;;;;221796;1265;22542;-51
2023/08/16 16:06:26;;;;;;;10.00;9.00;;;27.80;55.20;;;;;;221740;1263;23903;-53
2023/08/16 16:11:32;;;;;;;8.60;7.90;;;27.60;54.40;;;;;;222038;1264;22518;-52
2023/08/16 16:16:43;;;;;;;9.30;8.50;;;27.40;53.20;;;;;;222024;1260;25464;-50
2023/08/16 16:21:47;;;;;;;9.00;8.20;;;27.30;53.10;;;;;;222007;1268;22553;-50
2023/08/16 16:26:50;;;;;;;8.40;7.60;;;27.10;52.10;;;;;;222035;1269;22749;-52
2023/08/16 16:31:53;;;;;;;8.60;8.00;;;26.90;51.50;;;;;;222217;1269;22523;-50
2023/08/16 16:36:56;;;;;;;7.30;6.90;;;26.80;50.60;;;;;;221684;1264;25649;-49
2023/08/16 16:42:00;;;;;;;8.20;7.40;;;26.70;49.90;;;;;;222127;1261;22585;-50
2023/08/16 16:47:05;;;;;;;7.80;7.00;;;26.60;48.60;;;;;;221934;1268;22535;-51
2023/08/16 16:52:08;;;;;;;7.40;6.90;;;26.40;48.50;;;;;;221862;1268;24202;-52
2023/08/16 16:57:14;;;;;;;8.50;7.00;;;26.20;47.60;;;;;;221872;1257;24296;-53
2023/08/16 17:02:17;;;;;;;7.80;6.80;;;26.00;47.80;;;;;;221963;1263;22536;-52
2023/08/16 17:07:21;;;;;;;8.10;7.30;;;26.00;46.80;;;;;;221981;1263;23019;-48
2023/08/16 17:12:24;;;;;;;11.40;7.00;;;25.80;46.20;;;;;;221878;1250;22601;-49
2023/08/16 17:17:27;;;;;;;8.30;7.30;;;25.60;46.80;;;;;;222000;1265;22519;-49
2023/08/16 17:22:36;;;;;;;8.00;6.40;;;25.50;47.40;;;;;;221973;1265;24211;-46
2023/08/16 17:27:40;;;;;;;13.30;7.10;;;25.40;47.00;;;;;;221946;1265;25412;-49
2023/08/16 17:32:44;;;;;;;8.60;6.50;;;25.30;46.30;;;;;;221883;1255;22639;-47
2023/08/16 17:37:47;;;;;;;6.90;6.20;;;25.20;45.50;;;;;;221983;1264;25357;-47
2023/08/16 17:42:51;;;;;;;7.20;6.40;;;25.10;45.00;;;;;;221972;1266;26515;-47
2023/08/16 17:47:54;;;;;;;8.00;6.20;;;24.90;45.00;;;;;;221783;1263;22520;-47
2023/08/16 17:52:58;;;;;;;8.00;7.10;;;24.90;46.40;;;;;;221973;1269;24252;-50
2023/08/16 17:58:02;;;;;;;6.80;6.10;;;24.80;47.20;;;;;;222045;1263;22532;-46
2023/08/16 18:03:07;;;;;;;10.10;6.50;;;24.70;46.90;;;;;;221808;1266;22607;-48
2023/08/16 18:08:11;;;;;;;6.80;5.80;;;24.70;46.80;;;;;;221976;1264;23887;-50
2023/08/16 18:13:16;;;;;;;6.80;6.20;;;24.90;47.50;;;;;;221893;1263;22527;-46
2023/08/16 18:18:25;;;;;;;7.10;6.00;;;25.00;46.70;;;;;;221823;1263;24237;-46
2023/08/16 18:23:34;;;;;;;7.60;6.50;;;24.80;46.00;;;;;;221820;1266;24962;-51
2023/08/16 18:28:43;;;;;;;7.60;5.40;;;24.80;46.10;;;;;;221958;1257;22653;-49
2023/08/16 18:33:50;;;;;;;6.80;5.40;;;25.20;46.00;;;;;;221942;1263;22595;-48
2023/08/16 18:38:54;;;;;;;5.50;5.10;;;25.40;45.60;;;;;;222055;1269;25353;-47
2023/08/16 18:43:59;;;;;;;9.00;5.20;;;25.30;45.30;;;;;;221951;1263;26818;-48
2023/08/16 18:49:03;;;;;;;6.10;5.30;;;25.30;45.00;;;;;;222110;1267;24279;-51
2023/08/16 18:54:11;;;;;;;6.30;5.70;;;25.20;45.50;;;;;;222354;1268;25236;-52
2023/08/16 18:59:14;;;;;;;6.00;5.20;;;25.20;45.10;;;;;;222080;1268;22645;-48
2023/08/16 19:04:21;;;;;;;7.50;5.60;;;25.10;45.00;;;;;;222224;1263;23128;-48
2023/08/16 19:09:30;;;;;;;5.50;5.00;;;25.00;45.50;;;;;;222106;1263;22514;-53
2023/08/16 19:14:34;;;;;;;7.60;4.90;;;24.80;45.80;;;;;;222112;1264;22517;-53
2023/08/16 19:19:46;;;;;;;5.60;4.90;;;24.60;46.20;;;;;;221960;1264;22531;-47
2023/08/16 19:24:53;;;;;;;5.30;4.90;;;24.50;46.10;;;;;;221436;1265;22524;-48
2023/08/16 19:29:57;;;;;;;8.50;4.60;;;24.50;45.90;;;;;;221944;1263;22542;-50
2023/08/16 19:35:04;;;;;;;5.10;4.70;;;24.40;46.00;;;;;;221959;1265;22538;-48
2023/08/16 19:40:09;;;;;;;5.20;4.70;;;24.30;45.50;;;;;;221900;1267;22605;-49
2023/08/16 19:45:13;;;;;;;4.70;4.10;;;24.20;46.10;;;;;;221953;1258;24334;-49
2023/08/16 19:50:20;;;;;;;5.20;4.70;;;24.10;46.00;;;;;;222073;1264;22556;-48
2023/08/16 19:55:33;;;;;;;5.70;4.40;;;24.00;45.60;;;;;;221996;1265;24193;-49
2023/08/16 20:00:37;;;;;;;5.10;4.70;;;23.90;45.50;;;;;;221595;1272;25282;-49
2023/08/16 20:05:41;;;;;;;4.30;4.00;;;23.90;46.30;;;;;;221742;1269;22655;-50
2023/08/16 20:10:45;;;;;;;4.40;4.10;;;23.90;45.70;;;;;;221645;1269;22521;-49
2023/08/16 20:15:52;;;;;;;4.60;4.20;;;23.80;45.50;;;;;;221432;1268;22657;-50
2023/08/16 20:20:56;;;;;;;4.20;3.70;;;23.70;45.40;;;;;;221425;1266;22524;-53
2023/08/16 20:26:00;;;;;;;4.90;4.00;;;23.80;45.10;;;;;;221622;1266;23976;-48
2023/08/16 20:31:04;;;;;;;5.70;4.10;;;23.70;44.90;;;;;;222024;1255;26502;-50
2023/08/16 20:36:08;;;;;;;4.70;4.30;;;24.00;46.00;;;;;;221901;1259;22527;-51
2023/08/16 20:41:24;;;;;;;7.30;4.30;;;24.60;47.30;;;;;;222090;1264;26209;-49
2023/08/16 20:46:43;;;;;;;5.50;4.60;;;24.90;48.90;;;;;;222131;1259;22554;-53
2023/08/16 20:51:47;;;;;;;10.70;6.20;;;25.30;51.70;;;;;;221977;1257;22542;-48
2023/08/16 20:56:50;;;;;;;13.90;4.70;;;25.50;52.80;;;;;;222039;1265;22523;-45
2023/08/16 21:01:53;;;;;;;8.80;4.10;;;25.70;52.10;;;;;;221957;1269;22728;-49
2023/08/16 21:06:56;;;;;;;6.00;4.40;;;25.90;52.30;;;;;;221695;1270;24258;-51
2023/08/16 21:11:59;;;;;;;5.80;4.40;;;25.90;52.50;;;;;;221913;1268;24200;-51
2023/08/16 21:17:07;;;;;;;6.10;3.80;;;26.00;52.80;;;;;;221875;1271;22584;-50
2023/08/16 21:22:10;;;;;;;6.10;4.30;;;26.10;53.50;;;;;;221844;1267;22840;-51
2023/08/16 21:27:13;;;;;;;8.20;4.40;;;26.30;53.70;;;;;;221849;1264;22533;-50
2023/08/16 21:32:16;;;;;;;5.50;3.90;;;26.20;54.50;;;;;;222161;1271;22604;-54
2023/08/16 21:37:19;;;;;;;4.10;3.80;;;26.30;54.80;;;;;;221819;1269;22658;-50
2023/08/16 21:42:23;;;;;;;4.40;4.10;;;26.40;55.00;;;;;;221742;1269;22999;-48
2023/08/16 21:47:26;;;;;;;5.60;4.50;;;26.30;55.30;;;;;;221873;1266;22563;-48
2023/08/16 21:52:31;;;;;;;4.90;4.30;;;26.30;55.80;;;;;;221675;1271;24209;-49
2023/08/16 21:57:33;;;;;;;4.90;4.00;;;26.40;56.00;;;;;;222008;1264;25496;-49
2023/08/16 22:02:36;;;;;;;5.40;4.20;;;26.30;56.10;;;;;;221953;1268;22654;-49
2023/08/16 22:07:41;;;;;;;4.10;3.70;;;26.40;56.60;;;;;;221703;1267;24214;-47
2023/08/16 22:12:45;;;;;;;3.80;3.50;;;26.60;56.90;;;;;;223711;1269;22522;-49
2023/08/16 22:17:48;;;;;;;4.60;4.20;;;26.90;56.40;;;;;;221909;1264;22538;-47
2023/08/16 22:22:51;;;;;;;6.40;4.20;;;26.90;56.40;;;;;;224687;1264;22618;-50
2023/08/16 22:27:54;;;;;;;4.20;3.70;;;26.90;56.80;;;;;;221802;1270;23898;-55
2023/08/16 22:32:57;;;;;;;4.70;4.30;;;27.00;57.60;;;;;;221758;1267;22639;-53
2023/08/16 22:38:01;;;;;;;4.40;4.10;;;27.00;57.80;;;;;;222180;1267;24691;-48
2023/08/16 22:43:05;;;;;;;6.30;4.30;;;27.10;58.30;;;;;;222070;1264;22524;-50
2023/08/16 22:48:08;;;;;;;4.30;3.90;;;27.20;58.90;;;;;;222028;1255;24378;-50
2023/08/16 22:53:11;;;;;;;5.70;4.10;;;27.20;59.80;;;;;;221730;1259;22608;-51
2023/08/16 22:58:13;;;;;;;4.50;4.10;;;27.30;60.10;;;;;;221876;1264;22791;-52
2023/08/16 23:03:16;;;;;;;4.10;3.80;;;27.30;60.70;;;;;;221779;1268;22577;-50
2023/08/16 23:08:19;;;;;;;9.10;4.10;;;27.30;61.00;;;;;;221861;1267;24845;-51
2023/08/16 23:13:22;;;;;;;10.10;3.90;;;27.30;61.60;;;;;;222136;1263;23623;-47
2023/08/16 23:18:25;;;;;;;4.70;4.20;;;27.30;61.90;;;;;;222076;1267;22737;-52
2023/08/16 23:23:28;;;;;;;4.40;4.00;;;27.30;62.20;;;;;;222073;1264;23892;-51
2023/08/16 23:28:31;;;;;;;4.60;4.20;;;27.40;62.30;;;;;;221703;1269;22757;-50
2023/08/16 23:33:34;;;;;;;5.60;3.80;;;27.20;62.70;;;;;;221800;1264;22781;-60
2023/08/16 23:38:37;;;;;;;6.00;3.30;;;27.00;63.80;;;;;;221578;1258;25530;-60
2023/08/16 23:43:40;;;;;;;5.90;3.40;;;27.00;63.80;;;;;;221918;1266;23911;-58
2023/08/16 23:48:43;;;;;;;3.70;3.40;;;27.00;63.70;;;;;;221909;1267;25577;-60
2023/08/16 23:53:46;;;;;;;5.90;3.20;;;27.10;63.40;;;;;;222199;1264;22533;-60
2023/08/16 23:58:49;;;;;;;5.10;3.30;;;27.10;64.00;;;;;;221997;1257;26637;-59
